Terminal Aerodrome Forecast
Issued by NWS Omaha/Valley, NE

Home | Current Version | Previous Version | Graphics & Text | Print | Product List | Glossary On
Versions: 1 2 3 4 5 6 7 8 9 10 11 12 13 14 15 16 17 18 19 20 21 22 23 24 25 26 27 28 29 30 31 32 33 34 35 36 37
028
FTUS43 KOAX 301740
TAFOFK
TAF
KOFK 301740Z 3018/3118 16012KT P6SM SCT100 BKN250
     FM302100 17013G20KT P6SM SCT050 BKN250
     FM310000 17008KT P6SM SCT070 BKN250
     FM310400 19010KT P6SM BKN045
      TEMPO 3104/3106 4SM -TSRA BKN030CB
     FM310600 VRB07KT P6SM VCTS OVC050CB
      TEMPO 3106/3109 2SM TSRA OVC025CB
     FM311000 33008KT P6SM OVC090=

USA.gov is the U.S. government's official web portal to all federal, state and local government web resources and services.